Time;durP1;ratioP1;P1;durP2;ratioP2;P2;SDS_P1;SDS_P2;PMS_P1;PMS_P2;Temp;Humidity;BMP_temperature;BMP_pressure;BME280_temperature;BME280_humidity;BME280_pressure;Samples;Min_cycle;Max_cycle;Signal;HPM_P1;HPM_P2
2021/07/04 00:02:07;;;;;;;0.10;0.10;;;;;;;17.78;89.06;96998.97;4993451;28;20480;-65
2021/07/04 00:04:33;;;;;;;0.10;0.10;;;;;;;17.74;89.22;96987.72;4960017;28;20037;-65
2021/07/04 00:06:59;;;;;;;0.10;0.10;;;;;;;17.76;89.23;96982.66;4975954;28;20027;-65
2021/07/04 00:09:25;;;;;;;0.10;0.10;;;;;;;17.76;89.33;96982.66;4993429;28;20038;-65
2021/07/04 00:11:51;;;;;;;0.10;0.10;;;;;;;17.77;89.24;96978.75;4993418;28;20022;-64
2021/07/04 00:14:17;;;;;;;0.00;0.00;;;;;;;17.80;89.19;96972.53;4993125;28;20100;-65
2021/07/04 00:16:43;;;;;;;0.05;0.05;;;;;;;17.82;89.26;96972.22;4993544;28;20034;-65
2021/07/04 00:19:09;;;;;;;0.10;0.10;;;;;;;17.82;89.17;96975.78;4993764;28;20049;-65
2021/07/04 00:21:35;;;;;;;0.10;0.10;;;;;;;17.83;89.48;96971.88;4993461;28;20034;-65
2021/07/04 00:24:01;;;;;;;0.10;0.10;;;;;;;17.86;89.36;96981.53;4993364;28;20521;-64
2021/07/04 00:26:27;;;;;;;0.10;0.10;;;;;;;17.91;89.37;96977.78;4993075;28;20084;-65
2021/07/04 00:28:53;;;;;;;0.10;0.10;;;;;;;17.93;89.23;96970.75;4976371;28;20441;-64
2021/07/04 00:31:18;;;;;;;0.10;0.10;;;;;;;17.96;89.11;96969.28;4993809;28;20042;-65
2021/07/04 00:33:44;;;;;;;0.10;0.10;;;;;;;17.98;89.20;96972.56;4975653;28;20077;-65
2021/07/04 00:36:10;;;;;;;0.10;0.10;;;;;;;18.00;89.21;96964.69;4993315;28;20046;-65
2021/07/04 00:38:36;;;;;;;0.10;0.10;;;;;;;17.98;89.48;96956.69;4975619;28;20027;-65
2021/07/04 00:41:03;;;;;;;0.10;0.10;;;;;;;18.01;89.42;96955.22;4993160;28;20049;-65
2021/07/04 00:43:29;;;;;;;0.10;0.10;;;;;;;18.00;89.53;96946.06;4976180;28;20030;-66
2021/07/04 00:45:55;;;;;;;0.10;0.10;;;;;;;18.02;89.63;96951.28;4992033;28;20034;-64
2021/07/04 00:48:21;;;;;;;0.10;0.10;;;;;;;18.03;89.69;96941.81;4975371;28;20031;-63
2021/07/04 00:50:47;;;;;;;0.10;0.10;;;;;;;18.03;89.74;96939.03;4992981;28;20165;-64
2021/07/04 00:53:13;;;;;;;0.10;0.10;;;;;;;18.05;89.40;96936.78;4992852;28;20454;-64
2021/07/04 00:55:40;;;;;;;0.10;0.10;;;;;;;18.06;89.64;96943.94;4993366;28;20113;-63
2021/07/04 00:58:05;;;;;;;0.10;0.10;;;;;;;18.02;89.59;96946.56;4992951;28;20027;-64
2021/07/04 01:00:34;;;;;;;0.10;0.10;;;;;;;17.97;89.69;96955.06;4993308;28;20138;-64
2021/07/04 01:03:00;;;;;;;0.10;0.10;;;;;;;17.89;89.58;96963.38;4992753;28;20030;-65
2021/07/04 01:05:28;;;;;;;0.10;0.10;;;;;;;17.82;89.95;96956.34;4993044;28;20038;-64
2021/07/04 01:07:55;;;;;;;0.10;0.10;;;;;;;17.79;89.88;96965.34;4991540;28;20120;-63
2021/07/04 01:10:24;;;;;;;0.10;0.10;;;;;;;17.72;89.87;96965.00;4992813;28;20081;-63
2021/07/04 01:12:51;;;;;;;0.10;0.10;;;;;;;17.67;89.94;96967.97;4992740;28;20027;-63
2021/07/04 01:15:20;;;;;;;0.10;0.10;;;;;;;17.62;90.04;96963.41;4992650;28;20522;-63
2021/07/04 01:17:48;;;;;;;0.10;0.10;;;;;;;17.61;90.33;96974.84;4993129;28;20407;-64
2021/07/04 01:20:17;;;;;;;0.10;0.10;;;;;;;17.60;90.22;96973.19;4992978;28;20042;-63
2021/07/04 01:23:05;;;;;;;0.10;0.10;;;;;;;17.62;90.07;96982.00;4992920;28;20280;-64
2021/07/04 01:25:33;;;;;;;0.10;0.10;;;;;;;17.65;90.08;96982.16;4994865;28;20116;-64
2021/07/04 01:28:00;;;;;;;0.10;0.10;;;;;;;17.68;90.02;96983.47;4996536;28;20169;-63
2021/07/04 01:30:27;;;;;;;0.10;0.10;;;;;;;17.68;90.19;96986.22;4996428;28;20030;-63
2021/07/04 01:32:53;;;;;;;0.10;0.10;;;;;;;17.67;90.14;96977.09;4996207;28;20135;-65
2021/07/04 01:35:20;;;;;;;0.10;0.10;;;;;;;17.67;89.88;96979.06;4996662;28;20030;-63
2021/07/04 01:37:46;;;;;;;0.10;0.10;;;;;;;17.69;89.92;96979.53;4996059;28;20121;-65
2021/07/04 01:40:12;;;;;;;0.10;0.10;;;;;;;17.71;89.93;96968.94;4995926;28;20117;-64
2021/07/04 01:42:40;;;;;;;0.10;0.10;;;;;;;17.74;90.00;96979.41;4962488;28;20066;-63
2021/07/04 01:45:06;;;;;;;0.10;0.10;;;;;;;17.75;90.12;96967.13;4995813;28;20031;-64
2021/07/04 01:47:38;;;;;;;0.10;0.10;;;;;;;17.76;89.91;96960.44;4995720;28;20412;-64
2021/07/04 01:50:07;;;;;;;0.10;0.10;;;;;;;17.76;90.01;96963.22;4995709;28;20042;-64
2021/07/04 01:52:32;;;;;;;0.10;0.10;;;;;;;17.81;89.94;96945.59;4995957;28;20037;-63
2021/07/04 01:54:58;;;;;;;0.10;0.10;;;;;;;17.87;89.93;96944.25;4995647;28;20022;-63
2021/07/04 01:57:24;;;;;;;0.10;0.10;;;;;;;17.89;90.11;96943.94;4995316;28;20030;-63
2021/07/04 01:59:53;;;;;;;0.10;0.10;;;;;;;17.93;90.00;96953.28;4995387;28;20041;-63
2021/07/04 02:02:19;;;;;;;0.10;0.10;;;;;;;17.99;90.08;96940.84;4995526;28;20484;-63
2021/07/04 02:04:45;;;;;;;0.10;0.10;;;;;;;18.04;89.95;96940.69;4995558;28;20034;-63
2021/07/04 02:07:18;;;;;;;0.10;0.10;;;;;;;18.10;90.12;96950.47;4995835;28;20030;-64
2021/07/04 02:09:49;;;;;;;0.00;0.00;;;;;;;18.13;89.92;96951.78;4995281;28;20049;-64
2021/07/04 02:12:17;;;;;;;0.10;0.10;;;;;;;18.14;89.80;96947.88;4995542;28;20038;-63
2021/07/04 02:14:44;;;;;;;0.10;0.10;;;;;;;18.14;89.88;96948.66;4995156;28;20061;-64
2021/07/04 02:17:09;;;;;;;0.10;0.10;;;;;;;18.18;90.04;96948.81;4994068;28;20080;-63
2021/07/04 02:19:38;;;;;;;0.10;0.10;;;;;;;18.17;90.07;96945.22;4977782;28;20435;-63
2021/07/04 02:22:06;;;;;;;0.10;0.10;;;;;;;18.19;89.93;96948.47;4994116;28;20444;-63
2021/07/04 02:24:33;;;;;;;0.10;0.10;;;;;;;18.19;90.07;96945.69;4995265;28;20452;-63
2021/07/04 02:27:00;;;;;;;0.10;0.10;;;;;;;18.20;90.18;96952.91;4995107;28;20447;-62
2021/07/04 02:29:26;;;;;;;0.10;0.10;;;;;;;18.17;90.16;96955.53;4995542;28;20070;-63
2021/07/04 02:31:52;;;;;;;0.10;0.10;;;;;;;18.11;90.18;96954.88;4995138;28;20041;-65
2021/07/04 02:34:18;;;;;;;0.10;0.10;;;;;;;18.11;90.50;96957.66;4977779;28;20030;-63
2021/07/04 02:36:44;;;;;;;0.10;0.10;;;;;;;18.09;90.29;96957.16;4960182;28;20493;-63
2021/07/04 02:39:13;;;;;;;0.10;0.10;;;;;;;18.11;90.39;96951.28;4995185;28;20042;-63
2021/07/04 02:41:39;;;;;;;0.10;0.10;;;;;;;18.11;90.45;96942.94;4994781;28;20116;-62
2021/07/04 02:44:05;;;;;;;0.10;0.10;;;;;;;18.09;90.45;96940.50;4995013;28;20117;-63
2021/07/04 02:46:31;;;;;;;0.10;0.10;;;;;;;18.13;90.63;96940.66;4995064;28;20026;-62
2021/07/04 02:48:58;;;;;;;0.10;0.10;;;;;;;18.14;90.54;96936.75;4994726;28;20443;-64
2021/07/04 02:51:23;;;;;;;0.10;0.10;;;;;;;18.12;90.67;96937.06;4977204;28;20030;-62
2021/07/04 02:53:49;;;;;;;0.10;0.10;;;;;;;18.08;90.64;96932.50;4994805;28;20519;-63
2021/07/04 02:56:15;;;;;;;0.10;0.10;;;;;;;18.04;90.59;96935.13;4995078;28;20085;-64
2021/07/04 02:58:41;;;;;;;0.10;0.10;;;;;;;17.99;90.68;96935.28;4995061;28;20058;-62
2021/07/04 03:01:06;;;;;;;0.10;0.10;;;;;;;18.01;90.72;96935.78;4994783;28;20034;-62
2021/07/04 03:03:32;;;;;;;0.10;0.10;;;;;;;17.98;90.47;96939.22;4994803;28;20031;-63
2021/07/04 03:05:58;;;;;;;0.10;0.10;;;;;;;17.96;90.81;96939.56;4994459;28;20034;-63
2021/07/04 03:08:24;;;;;;;0.10;0.10;;;;;;;17.97;90.63;96932.03;4994565;28;20023;-63
2021/07/04 03:10:50;;;;;;;0.10;0.10;;;;;;;18.03;90.90;96927.94;4994822;28;20042;-63
2021/07/04 03:13:16;;;;;;;0.10;0.10;;;;;;;18.05;90.58;96922.88;4994011;28;20452;-63
2021/07/04 03:15:41;;;;;;;0.10;0.10;;;;;;;18.10;90.70;96913.56;4994321;28;20386;-63
2021/07/04 03:18:08;;;;;;;0.10;0.10;;;;;;;18.15;90.53;96910.59;4994319;28;20033;-63
2021/07/04 03:20:33;;;;;;;0.10;0.10;;;;;;;18.18;90.49;96912.69;4976585;28;20529;-63
2021/07/04 03:22:59;;;;;;;0.10;0.10;;;;;;;18.19;90.60;96908.78;4976525;28;20068;-62
2021/07/04 03:25:25;;;;;;;0.10;0.10;;;;;;;18.19;90.44;96917.94;4994246;28;20030;-63
2021/07/04 03:27:51;;;;;;;0.10;0.10;;;;;;;18.18;90.68;96913.53;4976424;28;20027;-63
2021/07/04 03:30:20;;;;;;;0.10;0.10;;;;;;;18.19;90.48;96917.94;4994244;28;20411;-63
2021/07/04 03:32:47;;;;;;;0.10;0.10;;;;;;;18.20;90.67;96915.97;4976314;28;20026;-64
2021/07/04 03:35:15;;;;;;;0.10;0.10;;;;;;;18.20;90.53;96904.88;4994013;28;20088;-64
2021/07/04 03:37:42;;;;;;;0.10;0.10;;;;;;;18.20;90.35;96899.31;4993173;28;20034;-60
2021/07/04 03:40:12;;;;;;;0.10;0.10;;;;;;;18.15;90.73;96896.72;4990243;28;20496;-58
2021/07/04 03:42:38;;;;;;;0.10;0.10;;;;;;;18.13;90.70;96905.38;4976193;28;20038;-58
2021/07/04 03:45:06;;;;;;;0.10;0.10;;;;;;;18.09;90.84;96920.25;4992533;28;20455;-57
2021/07/04 03:47:32;;;;;;;0.10;0.10;;;;;;;18.02;90.93;96917.97;4975778;28;20377;-57
2021/07/04 03:49:57;;;;;;;0.10;0.10;;;;;;;17.97;90.88;96932.84;4975924;28;20037;-58
2021/07/04 03:52:23;;;;;;;0.10;0.10;;;;;;;17.93;91.20;96939.38;4993704;28;20035;-60
2021/07/04 03:54:49;;;;;;;0.10;0.10;;;;;;;17.87;91.13;96941.47;4993357;28;20038;-58
2021/07/04 03:57:24;;;;;;;0.10;0.10;;;;;;;17.82;91.14;96938.91;4993989;28;20034;-58
2021/07/04 04:00:01;;;;;;;0.10;0.10;;;;;;;17.82;91.22;96934.16;4993350;28;20038;-60
2021/07/04 04:02:27;;;;;;;0.10;0.10;;;;;;;17.83;91.21;96926.66;4993276;28;20115;-58
2021/07/04 04:04:57;;;;;;;0.10;0.10;;;;;;;17.85;91.18;96927.13;4974193;28;20033;-65
2021/07/04 04:07:24;;;;;;;0.10;0.10;;;;;;;17.83;91.37;96921.91;4991744;28;20125;-63
2021/07/04 04:09:52;;;;;;;0.10;0.10;;;;;;;17.79;91.11;96934.81;4993205;28;20038;-64
2021/07/04 04:12:21;;;;;;;0.10;0.10;;;;;;;17.78;91.15;96941.50;4993112;28;20030;-64
2021/07/04 04:14:47;;;;;;;0.10;0.10;;;;;;;17.74;91.29;96937.75;4975681;28;20050;-66
2021/07/04 04:17:13;;;;;;;0.10;0.10;;;;;;;17.77;91.37;96947.38;4991730;28;20038;-65
2021/07/04 04:19:39;;;;;;;0.10;0.10;;;;;;;17.78;91.55;96944.25;4989899;28;20045;-68
2021/07/04 04:22:06;;;;;;;0.10;0.10;;;;;;;17.83;91.31;96949.66;4991374;28;20030;-65
2021/07/04 04:24:32;;;;;;;0.10;0.10;;;;;;;17.82;91.13;96956.34;4988996;28;20026;-66
2021/07/04 04:26:57;;;;;;;0.10;0.10;;;;;;;17.85;91.47;96944.59;4991224;28;20022;-64
2021/07/04 04:29:24;;;;;;;0.10;0.10;;;;;;;17.81;91.29;96956.69;4991560;28;20042;-67
2021/07/04 04:31:50;;;;;;;0.10;0.10;;;;;;;17.78;91.42;96963.69;4991486;28;20117;-64
2021/07/04 04:34:16;;;;;;;0.10;0.10;;;;;;;17.76;91.53;96962.41;4991676;28;20113;-64
2021/07/04 04:36:42;;;;;;;0.10;0.10;;;;;;;17.74;91.71;96948.88;4992832;28;20026;-65
2021/07/04 04:39:08;;;;;;;0.10;0.10;;;;;;;17.74;91.53;96945.25;4993154;28;20065;-65
2021/07/04 04:41:36;;;;;;;0.10;0.10;;;;;;;17.76;91.48;96951.31;4993069;28;20057;-65
2021/07/04 04:44:03;;;;;;;0.10;0.10;;;;;;;17.72;91.46;96951.13;4992821;28;20121;-64
2021/07/04 04:46:30;;;;;;;0.10;0.10;;;;;;;17.72;91.59;96956.69;4992767;28;20096;-64
2021/07/04 04:48:55;;;;;;;0.10;0.10;;;;;;;17.72;91.56;96959.47;4992838;28;20066;-67
2021/07/04 04:51:22;;;;;;;0.10;0.10;;;;;;;17.74;91.66;96964.69;4992842;28;20531;-65
2021/07/04 04:53:47;;;;;;;0.10;0.10;;;;;;;17.76;91.67;96965.19;4992875;28;20120;-64
2021/07/04 04:56:14;;;;;;;0.10;0.10;;;;;;;17.79;91.70;96972.88;4995584;28;20122;-66
2021/07/04 04:58:39;;;;;;;0.10;0.10;;;;;;;17.78;91.72;96972.03;5001089;28;20046;-64
2021/07/04 05:01:05;;;;;;;0.10;0.10;;;;;;;17.77;91.67;96962.09;4994111;28;20022;-64
2021/07/04 05:03:31;;;;;;;0.10;0.10;;;;;;;17.79;91.62;96964.53;4995267;28;20026;-65
2021/07/04 05:05:57;;;;;;;0.10;0.10;;;;;;;17.78;91.67;96962.91;4994888;28;20113;-64
2021/07/04 05:08:25;;;;;;;0.10;0.10;;;;;;;17.78;91.71;96969.25;4994919;28;20026;-64
2021/07/04 05:10:52;;;;;;;0.10;0.10;;;;;;;17.75;91.73;96967.13;4995011;28;20448;-65
2021/07/04 05:13:19;;;;;;;0.10;0.10;;;;;;;17.72;91.62;96980.88;4994550;28;20125;-65
2021/07/04 05:15:45;;;;;;;0.10;0.10;;;;;;;17.73;91.88;96976.94;4994994;28;20038;-65
2021/07/04 05:18:11;;;;;;;0.10;0.10;;;;;;;17.76;91.80;96979.06;4994615;28;20034;-66
2021/07/04 05:20:42;;;;;;;0.10;0.10;;;;;;;17.79;91.63;96981.19;4994622;28;20034;-63
2021/07/04 05:23:08;;;;;;;0.10;0.10;;;;;;;17.79;91.70;96982.00;4993012;28;20057;-64
2021/07/04 05:25:34;;;;;;;0.10;0.10;;;;;;;17.74;91.93;96989.66;4994659;28;20523;-64
2021/07/04 05:28:00;;;;;;;0.10;0.10;;;;;;;17.64;91.78;96990.81;4984842;28;20019;-66
2021/07/04 05:30:26;;;;;;;0.10;0.10;;;;;;;17.56;92.14;96981.31;4994337;28;20038;-65
2021/07/04 05:32:52;;;;;;;0.10;0.10;;;;;;;17.51;92.13;96985.09;4994557;28;20125;-69
2021/07/04 05:35:17;;;;;;;0.10;0.10;;;;;;;17.50;92.28;96983.47;4994325;28;20058;-64
2021/07/04 05:37:43;;;;;;;0.10;0.10;;;;;;;17.44;92.39;96983.94;4994194;28;20034;-66
2021/07/04 05:40:14;;;;;;;0.10;0.10;;;;;;;17.39;92.57;96987.69;4993932;28;20386;-67
2021/07/04 05:42:43;;;;;;;0.10;0.10;;;;;;;17.33;92.28;96998.13;4968889;28;20041;-65
2021/07/04 05:45:15;;;;;;;0.10;0.10;;;;;;;17.32;92.53;96990.13;4994189;28;20030;-68
2021/07/04 05:47:48;;;;;;;0.10;0.10;;;;;;;17.26;92.45;97002.53;4994207;28;20369;-69
2021/07/04 05:50:15;;;;;;;0.10;0.10;;;;;;;17.20;92.29;96996.31;4984737;28;20104;-64
2021/07/04 05:52:46;;;;;;;0.10;0.10;;;;;;;17.09;92.21;96984.72;4994295;28;20035;-66
2021/07/04 05:55:13;;;;;;;0.10;0.10;;;;;;;17.01;92.48;96985.50;4985121;28;20030;-66
2021/07/04 05:57:42;;;;;;;0.10;0.10;;;;;;;16.95;92.41;96986.78;4993404;28;20403;-66
2021/07/04 06:00:10;;;;;;;0.10;0.10;;;;;;;16.91;92.66;96992.13;4984686;28;20026;-67
2021/07/04 06:02:37;;;;;;;0.10;0.10;;;;;;;16.90;92.76;96979.44;4990988;28;20031;-64
2021/07/04 06:05:04;;;;;;;0.10;0.10;;;;;;;16.91;92.60;96977.47;4993971;28;20492;-68
2021/07/04 06:07:30;;;;;;;0.10;0.10;;;;;;;16.87;92.75;96984.75;4993951;28;20033;-68
2021/07/04 06:09:58;;;;;;;0.10;0.10;;;;;;;16.80;92.61;96996.31;4993424;28;20046;-65
2021/07/04 06:12:25;;;;;;;0.10;0.10;;;;;;;16.80;92.67;96988.81;4993438;28;20068;-65
2021/07/04 06:14:51;;;;;;;0.10;0.10;;;;;;;16.80;92.79;96983.28;4983907;28;20046;-63
2021/07/04 06:17:17;;;;;;;0.10;0.10;;;;;;;16.79;92.63;96975.28;4992661;28;20034;-64
2021/07/04 06:19:43;;;;;;;0.10;0.10;;;;;;;16.76;92.68;96995.31;4993203;28;20408;-61
2021/07/04 06:22:08;;;;;;;0.10;0.10;;;;;;;16.72;92.76;97014.53;4993059;28;20530;-65
2021/07/04 06:24:34;;;;;;;0.10;0.10;;;;;;;16.69;92.88;97044.84;4984086;28;20088;-60
2021/07/04 06:27:02;;;;;;;0.10;0.10;;;;;;;16.65;92.67;97041.88;4992486;28;20041;-62
2021/07/04 06:29:28;;;;;;;0.10;0.10;;;;;;;16.66;92.77;97029.66;4961039;28;20030;-61
2021/07/04 06:31:54;;;;;;;0.10;0.10;;;;;;;16.68;92.76;97015.47;4993333;28;20046;-61
2021/07/04 06:34:19;;;;;;;0.10;0.10;;;;;;;16.70;92.90;96996.59;4993315;28;20041;-67
2021/07/04 06:36:45;;;;;;;0.10;0.10;;;;;;;16.72;92.63;96994.31;4993176;28;20057;-62
2021/07/04 06:39:12;;;;;;;0.10;0.10;;;;;;;16.72;92.70;97005.41;4993094;28;20025;-61
2021/07/04 06:41:38;;;;;;;0.10;0.10;;;;;;;16.70;92.58;97025.13;4993196;28;20120;-59
2021/07/04 06:44:04;;;;;;;0.10;0.10;;;;;;;16.69;92.52;97040.09;4992942;28;20077;-61
2021/07/04 06:46:31;;;;;;;0.10;0.10;;;;;;;16.67;92.50;97042.38;4981349;28;20038;-62
2021/07/04 06:48:57;;;;;;;0.10;0.10;;;;;;;16.66;92.47;97043.50;4986205;28;20042;-63
2021/07/04 06:51:23;;;;;;;0.10;0.10;;;;;;;16.68;92.57;97062.59;4975976;28;20035;-66
2021/07/04 06:53:49;;;;;;;0.10;0.10;;;;;;;16.70;92.66;97052.84;4993626;28;20039;-63
2021/07/04 06:56:16;;;;;;;0.10;0.10;;;;;;;16.74;92.59;97051.06;4990385;28;20037;-60
2021/07/04 06:58:43;;;;;;;0.10;0.10;;;;;;;16.72;92.52;97064.41;4976468;28;20030;-64
2021/07/04 07:01:08;;;;;;;0.10;0.10;;;;;;;16.69;92.53;97051.19;4990010;28;20588;-61
2021/07/04 07:03:35;;;;;;;0.10;0.10;;;;;;;16.73;92.36;97060.50;4989805;28;20065;-65
2021/07/04 07:06:01;;;;;;;0.10;0.10;;;;;;;16.74;92.50;97066.84;4990073;28;20030;-60
2021/07/04 07:08:27;;;;;;;0.10;0.10;;;;;;;16.78;92.71;97060.38;4974906;28;20721;-63
2021/07/04 07:10:53;;;;;;;0.10;0.10;;;;;;;16.79;92.41;97067.53;4987778;28;20694;-61
2021/07/04 07:13:19;;;;;;;0.10;0.10;;;;;;;16.75;92.46;97072.09;4987549;28;20384;-64
2021/07/04 07:15:46;;;;;;;0.10;0.10;;;;;;;16.71;92.58;97073.88;4982255;28;20089;-65
2021/07/04 07:18:13;;;;;;;0.10;0.10;;;;;;;16.67;92.33;97074.84;4980626;28;20523;-65
2021/07/04 07:20:40;;;;;;;0.10;0.10;;;;;;;16.59;92.45;97076.41;4990469;28;20049;-60
2021/07/04 07:23:16;;;;;;;0.10;0.10;;;;;;;16.52;92.50;97076.84;4990041;28;20030;-67
2021/07/04 07:25:41;;;;;;;0.10;0.10;;;;;;;16.49;92.54;97090.50;4980382;28;20455;-62
2021/07/04 07:28:07;;;;;;;0.10;0.10;;;;;;;16.49;92.58;97096.88;4990813;28;20026;-64
2021/07/04 07:30:45;;;;;;;;;;;;;;;;;;;;;
2021/07/04 07:33:14;;;;;;;0.10;0.10;;;;;;;16.36;92.36;97084.72;4990302;28;20040;-64
2021/07/04 07:35:40;;;;;;;0.10;0.10;;;;;;;16.30;92.54;97094.31;4981199;28;20030;-63
2021/07/04 07:38:06;;;;;;;0.10;0.10;;;;;;;16.24;92.44;97114.94;5005949;28;20116;-62
2021/07/04 07:40:35;;;;;;;0.10;0.10;;;;;;;16.10;92.40;97115.00;4974298;28;20562;-65
2021/07/04 07:43:03;;;;;;;0.10;0.10;;;;;;;16.02;92.37;97129.56;4988718;28;20026;-65
2021/07/04 07:45:30;;;;;;;0.10;0.10;;;;;;;15.97;92.78;97122.19;4991343;28;20109;-64
2021/07/04 07:47:56;;;;;;;0.10;0.10;;;;;;;15.93;92.72;97129.50;4990905;28;20037;-64
2021/07/04 07:50:21;;;;;;;0.10;0.10;;;;;;;15.85;92.69;97133.00;4992503;28;20034;-63
2021/07/04 07:52:48;;;;;;;0.10;0.10;;;;;;;15.74;92.75;97126.84;4992333;28;20041;-64
2021/07/04 07:55:14;;;;;;;0.10;0.10;;;;;;;15.69;92.86;97124.97;4972970;28;20030;-63
2021/07/04 07:57:42;;;;;;;0.10;0.10;;;;;;;15.70;92.66;97137.69;4991073;28;20034;-64
2021/07/04 08:00:11;;;;;;;0.10;0.10;;;;;;;15.67;93.03;97140.28;4990827;28;20026;-64
2021/07/04 08:02:37;;;;;;;0.10;0.10;;;;;;;15.59;92.83;97139.03;4991083;28;20034;-65
2021/07/04 08:05:04;;;;;;;0.10;0.10;;;;;;;15.51;92.69;97156.38;4991024;28;20029;-67
2021/07/04 08:07:36;;;;;;;0.10;0.10;;;;;;;15.36;92.55;97152.78;4992286;28;20153;-66
2021/07/04 08:10:05;;;;;;;0.10;0.10;;;;;;;15.26;92.63;97158.50;4987587;28;20133;-67
2021/07/04 08:12:30;;;;;;;0.10;0.10;;;;;;;15.19;92.78;97158.09;4989718;28;20038;-64
2021/07/04 08:15:07;;;;;;;0.10;0.10;;;;;;;15.16;92.71;97172.53;4980082;28;20057;-64
2021/07/04 08:17:36;;;;;;;0.10;0.10;;;;;;;15.14;92.97;97174.78;4988029;28;20042;-65
2021/07/04 08:20:05;;;;;;;0.10;0.10;;;;;;;15.09;92.91;97196.97;4989615;28;20037;-66
2021/07/04 08:22:30;;;;;;;0.10;0.10;;;;;;;15.07;92.87;97189.81;4989644;28;20030;-64
2021/07/04 08:25:06;;;;;;;0.10;0.10;;;;;;;15.07;92.95;97181.53;4989712;28;20026;-67
2021/07/04 08:27:32;;;;;;;0.10;0.10;;;;;;;15.06;93.04;97188.19;4990107;28;20109;-66
2021/07/04 08:30:04;;;;;;;0.10;0.10;;;;;;;15.02;93.01;97198.19;4994864;28;20081;-67
2021/07/04 08:32:35;;;;;;;0.10;0.10;;;;;;;15.00;92.94;97224.50;4980633;28;20031;-65
2021/07/04 08:35:05;;;;;;;0.10;0.10;;;;;;;14.91;92.86;97224.34;4975185;28;20026;-64
2021/07/04 08:37:31;;;;;;;0.10;0.10;;;;;;;14.86;92.97;97218.94;4993017;28;20474;-63
2021/07/04 08:39:57;;;;;;;0.10;0.10;;;;;;;14.82;92.97;97227.00;4993147;28;20038;-64
2021/07/04 08:42:23;;;;;;;0.10;0.10;;;;;;;14.91;93.03;97232.66;4992818;28;20037;-65
2021/07/04 08:44:56;;;;;;;0.10;0.10;;;;;;;14.92;93.01;97234.31;4992623;28;20026;-65
2021/07/04 08:47:24;;;;;;;0.10;0.10;;;;;;;14.90;93.08;97239.31;4992537;28;20062;-65
2021/07/04 08:49:53;;;;;;;0.10;0.10;;;;;;;14.91;93.13;97246.47;4991611;28;20100;-62
2021/07/04 08:52:19;;;;;;;0.10;0.10;;;;;;;14.85;92.84;97245.72;4990151;28;20027;-66
2021/07/04 08:54:46;;;;;;;0.10;0.10;;;;;;;14.79;93.03;97237.84;4987469;28;20449;-65
2021/07/04 08:57:12;;;;;;;0.17;0.17;;;;;;;14.71;92.95;97239.34;4978919;28;20096;-66
2021/07/04 08:59:43;;;;;;;0.10;0.10;;;;;;;14.67;93.08;97243.81;4990462;28;20030;-67
2021/07/04 09:02:11;;;;;;;0.10;0.10;;;;;;;14.59;93.08;97259.09;4992011;28;20041;-66
2021/07/04 09:05:00;;;;;;;0.10;0.10;;;;;;;14.50;92.96;97266.41;4982900;28;20026;-65
2021/07/04 09:07:26;;;;;;;0.10;0.10;;;;;;;14.43;93.15;97271.47;4991660;28;20023;-62
2021/07/04 09:09:58;;;;;;;0.10;0.10;;;;;;;14.36;93.12;97283.72;4992018;28;20081;-64
2021/07/04 09:12:57;;;;;;;0.10;0.10;;;;;;;14.33;92.83;97266.94;4992473;28;20121;-62
2021/07/04 09:15:25;;;;;;;0.10;0.10;;;;;;;14.30;92.97;97279.38;4990973;28;20124;-67
2021/07/04 09:17:53;;;;;;;0.10;0.10;;;;;;;14.28;93.29;97281.63;4992735;28;20034;-65
2021/07/04 09:20:29;;;;;;;0.10;0.10;;;;;;;14.31;93.29;97283.81;4992820;28;20027;-68
2021/07/04 09:22:56;;;;;;;0.10;0.10;;;;;;;14.31;93.22;97282.97;4991472;28;20038;-65
2021/07/04 09:25:24;;;;;;;0.10;0.10;;;;;;;14.32;93.30;97292.88;4974075;28;20420;-67
2021/07/04 09:28:12;;;;;;;0.10;0.10;;;;;;;14.28;93.23;97306.47;4992992;28;20097;-67
2021/07/04 09:30:42;;;;;;;0.10;0.10;;;;;;;14.23;92.97;97308.47;4992196;28;20941;-68
2021/07/04 09:33:17;;;;;;;0.10;0.10;;;;;;;14.23;93.02;97322.28;4992898;28;20031;-68
2021/07/04 09:36:05;;;;;;;0.10;0.10;;;;;;;14.06;92.90;97308.94;4992143;28;20037;-68
2021/07/04 09:38:36;;;;;;;0.10;0.10;;;;;;;14.02;92.89;97315.06;4976769;28;20030;-68
2021/07/04 09:41:06;;;;;;;0.10;0.10;;;;;;;14.01;93.02;97313.41;4993161;28;20089;-66
2021/07/04 09:43:35;;;;;;;0.10;0.10;;;;;;;14.05;93.13;97327.47;4995772;28;20125;-68
2021/07/04 09:46:04;;;;;;;0.10;0.10;;;;;;;14.14;93.15;97313.84;4992829;28;20025;-68
2021/07/04 09:48:33;;;;;;;0.10;0.10;;;;;;;14.18;93.07;97320.41;4993452;28;20420;-65
2021/07/04 09:51:33;;;;;;;0.10;0.10;;;;;;;14.24;92.98;97315.66;4993315;28;20026;-66
2021/07/04 09:54:01;;;;;;;0.10;0.10;;;;;;;14.24;92.95;97315.66;4992221;28;20034;-67
2021/07/04 09:56:32;;;;;;;0.10;0.10;;;;;;;14.26;93.07;97310.66;4992970;28;20026;-66
2021/07/04 09:59:06;;;;;;;0.10;0.10;;;;;;;14.29;92.64;97316.38;4993359;28;20030;-65
2021/07/04 10:01:39;;;;;;;0.20;0.20;;;;;;;14.18;92.72;97310.19;4974871;28;20055;-67
2021/07/04 10:04:25;;;;;;;0.10;0.10;;;;;;;14.27;93.01;97315.88;4974247;28;20133;-67
2021/07/04 10:06:53;;;;;;;0.10;0.10;;;;;;;14.26;93.02;97327.22;4987866;28;20049;-69
2021/07/04 10:09:20;;;;;;;0.10;0.10;;;;;;;14.20;92.88;97323.69;4991330;28;20038;-66
2021/07/04 10:11:59;;;;;;;0.10;0.10;;;;;;;14.23;92.96;97327.81;4989476;28;20034;-71
2021/07/04 10:14:28;;;;;;;0.10;0.10;;;;;;;14.12;92.71;97335.38;4972398;28;20061;-68
2021/07/04 10:16:59;;;;;;;0.10;0.10;;;;;;;14.00;92.98;97336.63;4990809;28;20523;-72
2021/07/04 10:19:27;;;;;;;0.10;0.10;;;;;;;13.86;92.80;97338.44;4975864;28;20073;-70
2021/07/04 10:21:59;;;;;;;0.10;0.10;;;;;;;13.71;93.16;97344.13;4990348;28;20034;-71
2021/07/04 10:24:29;;;;;;;0.10;0.10;;;;;;;13.57;93.13;97333.75;4990298;28;20030;-69
2021/07/04 10:26:59;;;;;;;0.10;0.10;;;;;;;13.51;93.20;97336.84;4973058;28;20045;-70
2021/07/04 10:29:28;;;;;;;0.10;0.10;;;;;;;13.41;93.51;97346.88;4989093;28;20097;-69
2021/07/04 10:31:54;;;;;;;0.10;0.10;;;;;;;13.35;93.28;97349.97;4989669;28;20026;-67
2021/07/04 10:34:25;;;;;;;0.10;0.10;;;;;;;13.29;93.35;97344.47;4989793;28;20035;-65
2021/07/04 10:37:02;;;;;;;0.10;0.10;;;;;;;13.27;93.53;97346.66;4992092;28;20120;-71
2021/07/04 10:39:34;;;;;;;0.10;0.10;;;;;;;13.18;93.48;97353.13;4990017;28;20029;-66
2021/07/04 10:42:01;;;;;;;0.10;0.10;;;;;;;13.09;93.37;97352.91;4989998;28;20092;-67
2021/07/04 10:44:44;;;;;;;0.10;0.10;;;;;;;13.04;93.44;97350.97;4991462;28;20044;-64
2021/07/04 10:47:20;;;;;;;0.10;0.10;;;;;;;13.01;93.74;97348.78;4974527;28;20042;-65
2021/07/04 10:49:52;;;;;;;0.10;0.10;;;;;;;12.94;93.40;97354.66;4991852;28;20042;-67
2021/07/04 10:52:34;;;;;;;0.10;0.10;;;;;;;12.86;93.52;97344.22;4992207;28;20519;-63
2021/07/04 10:55:03;;;;;;;0.10;0.10;;;;;;;12.79;93.37;97338.22;4991773;28;20034;-64
2021/07/04 10:57:37;;;;;;;0.10;0.10;;;;;;;12.73;93.68;97353.94;4991174;28;20197;-64
2021/07/04 11:00:05;;;;;;;0.20;0.20;;;;;;;12.67;93.54;97363.34;4992048;28;20030;-65
2021/07/04 11:02:42;;;;;;;0.10;0.10;;;;;;;12.56;93.35;97351.56;4990124;28;20412;-64
2021/07/04 11:05:15;;;;;;;0.10;0.10;;;;;;;12.49;93.24;97367.56;4990577;28;20034;-65
2021/07/04 11:07:53;;;;;;;0.10;0.10;;;;;;;12.42;93.55;97361.53;4987677;28;20129;-66
2021/07/04 11:10:33;;;;;;;0.10;0.10;;;;;;;12.44;93.52;97362.09;4991346;28;20066;-66
2021/07/04 11:13:08;;;;;;;0.20;0.20;;;;;;;12.45;93.92;97369.25;4962853;28;20061;-65
2021/07/04 11:15:38;;;;;;;0.10;0.10;;;;;;;12.42;93.51;97372.56;4995340;28;20053;-66
2021/07/04 11:18:05;;;;;;;0.10;0.10;;;;;;;12.38;93.35;97379.72;4992142;28;20137;-65
2021/07/04 11:20:56;;;;;;;0.10;0.10;;;;;;;12.36;93.77;97398.47;4991311;28;20038;-66
2021/07/04 11:23:26;;;;;;;0.10;0.10;;;;;;;12.35;93.70;97394.91;4991592;28;20081;-65
2021/07/04 11:26:09;;;;;;;0.32;0.30;;;;;;;12.34;93.85;97384.16;4992081;28;20033;-67
2021/07/04 11:28:39;;;;;;;0.10;0.10;;;;;;;12.35;93.92;97416.06;4991683;28;20031;-65
2021/07/04 11:31:17;;;;;;;0.10;0.10;;;;;;;12.26;93.68;97411.16;4992016;28;20519;-67
2021/07/04 11:33:56;;;;;;;0.10;0.10;;;;;;;12.20;93.88;97401.25;4991792;28;20034;-65
2021/07/04 11:36:36;;;;;;;0.10;0.10;;;;;;;12.21;93.84;97413.91;4992278;28;20404;-67
2021/07/04 11:39:13;;;;;;;0.10;0.10;;;;;;;12.23;93.85;97408.97;4991930;28;20412;-69
2021/07/04 11:41:45;;;;;;;0.10;0.10;;;;;;;12.26;94.20;97422.19;4974322;28;20034;-66